Time;durP1;ratioP1;P1;durP2;ratioP2;P2;SDS_P1;SDS_P2;PMS_P1;PMS_P2;Temp;Humidity;BMP_temperature;BMP_pressure;BME280_temperature;BME280_humidity;BME280_pressure;Samples;Min_cycle;Max_cycle;Signal;HPM_P1;HPM_P2
2023/08/06 00:01:13;;;;;;;9.30;5.43;;;15.40;99.90;;;;;;5022475;28;20422;-55
2023/08/06 00:03:40;;;;;;;6.78;5.03;;;15.50;99.90;;;;;;5017064;28;20050;-56
2023/08/06 00:06:08;;;;;;;7.90;5.07;;;15.40;99.90;;;;;;5019133;28;20091;-51
2023/08/06 00:08:35;;;;;;;8.85;5.53;;;15.40;99.90;;;;;;5019423;28;20053;-47
2023/08/06 00:11:02;;;;;;;8.02;5.05;;;15.40;99.90;;;;;;5018910;28;20038;-50
2023/08/06 00:13:29;;;;;;;7.07;5.20;;;15.40;99.90;;;;;;5022911;28;20056;-45
2023/08/06 00:16:09;;;;;;;6.38;4.57;;;15.30;99.90;;;;;;5023719;28;20049;-52
2023/08/06 00:18:38;;;;;;;6.88;4.40;;;15.30;99.90;;;;;;5018812;28;20046;-49
2023/08/06 00:21:05;;;;;;;7.90;4.97;;;15.20;99.90;;;;;;5023715;28;20421;-45
2023/08/06 00:23:33;;;;;;;6.82;4.63;;;15.20;99.90;;;;;;5020916;28;20041;-54
2023/08/06 00:26:00;;;;;;;8.43;5.00;;;15.10;99.90;;;;;;5018035;28;20056;-51
2023/08/06 00:28:28;;;;;;;7.57;4.72;;;15.00;99.90;;;;;;5021576;28;20603;-49
2023/08/06 00:30:56;;;;;;;5.82;4.18;;;15.00;99.90;;;;;;5016680;28;20042;-57
2023/08/06 00:33:24;;;;;;;7.53;4.97;;;14.90;99.90;;;;;;5018565;28;20069;-51
2023/08/06 00:35:52;;;;;;;7.25;4.40;;;14.90;99.90;;;;;;5024910;28;20049;-54
2023/08/06 00:38:19;;;;;;;7.38;4.93;;;14.90;99.90;;;;;;5019987;28;20120;-56
2023/08/06 00:40:47;;;;;;;6.93;5.10;;;14.90;99.90;;;;;;5016097;28;20681;-51
2023/08/06 00:43:16;;;;;;;6.90;4.68;;;14.90;99.90;;;;;;5021978;28;20049;-57
2023/08/06 00:45:43;;;;;;;6.78;4.97;;;14.90;99.90;;;;;;5017565;28;20041;-49
2023/08/06 00:48:11;;;;;;;6.30;4.82;;;14.90;99.90;;;;;;5017711;28;20636;-49
2023/08/06 00:50:39;;;;;;;8.75;4.78;;;14.90;99.90;;;;;;5018410;28;20053;-53
2023/08/06 00:53:07;;;;;;;6.53;4.55;;;14.90;99.90;;;;;;5019939;28;20052;-49
2023/08/06 00:55:35;;;;;;;6.63;4.65;;;15.00;99.90;;;;;;5020208;28;20038;-52
2023/08/06 00:58:02;;;;;;;6.95;4.80;;;15.00;99.90;;;;;;5022320;28;20038;-56
2023/08/06 01:00:30;;;;;;;6.95;4.85;;;15.00;99.90;;;;;;5015819;28;20046;-53
2023/08/06 01:02:57;;;;;;;8.23;4.70;;;15.00;99.90;;;;;;5020870;28;20130;-51
2023/08/06 01:05:25;;;;;;;6.80;5.13;;;15.00;99.90;;;;;;5016162;28;20498;-47
2023/08/06 01:08:48;;;;;;;8.82;4.88;;;15.00;99.90;;;;;;5013822;28;20049;-54
2023/08/06 01:11:37;;;;;;;8.88;4.63;;;14.90;99.90;;;;;;5035777;28;20041;-49
2023/08/06 01:14:18;;;;;;;7.30;4.60;;;14.90;99.90;;;;;;5025546;28;20045;-53
2023/08/06 01:16:46;;;;;;;7.75;5.30;;;14.90;99.90;;;;;;5020301;28;20041;-53
2023/08/06 01:19:20;;;;;;;7.63;5.10;;;14.80;99.90;;;;;;5020030;28;20060;-52
2023/08/06 01:21:47;;;;;;;6.60;4.72;;;14.90;99.90;;;;;;5023142;28;20510;-50
2023/08/06 01:24:15;;;;;;;6.38;4.15;;;14.80;99.90;;;;;;5021423;28;20120;-53
2023/08/06 01:26:51;;;;;;;8.75;5.22;;;14.90;99.90;;;;;;5019848;28;20085;-52
2023/08/06 01:29:27;;;;;;;9.10;4.38;;;14.90;99.90;;;;;;5021955;28;20053;-53
2023/08/06 01:31:57;;;;;;;7.07;4.43;;;14.80;99.90;;;;;;5021137;28;20046;-49
2023/08/06 01:34:27;;;;;;;6.53;4.22;;;14.90;99.90;;;;;;5019610;28;20072;-51
2023/08/06 01:36:56;;;;;;;6.43;4.38;;;14.90;99.90;;;;;;5017224;28;20038;-51
2023/08/06 01:39:23;;;;;;;6.80;3.97;;;14.80;99.90;;;;;;5015116;28;20042;-57
2023/08/06 01:41:50;;;;;;;6.80;4.07;;;14.80;99.90;;;;;;5019022;28;20045;-49
2023/08/06 01:44:18;;;;;;;8.38;4.32;;;14.80;99.90;;;;;;5027171;28;20088;-51
2023/08/06 01:46:46;;;;;;;7.15;3.85;;;14.90;99.90;;;;;;5026678;28;20040;-52
2023/08/06 01:49:13;;;;;;;5.78;3.90;;;14.80;99.90;;;;;;5024072;28;20053;-51
2023/08/06 01:51:40;;;;;;;7.20;4.00;;;14.80;99.90;;;;;;5017078;28;20049;-50
2023/08/06 01:54:08;;;;;;;9.77;3.75;;;14.70;99.90;;;;;;5025718;28;20051;-51
2023/08/06 01:56:35;;;;;;;7.00;3.67;;;14.70;99.90;;;;;;5024631;28;20049;-50
2023/08/06 01:59:03;;;;;;;6.25;3.78;;;14.70;99.90;;;;;;5019068;28;20470;-53
2023/08/06 02:01:31;;;;;;;6.00;3.38;;;14.70;99.90;;;;;;5028446;28;20114;-52
2023/08/06 02:03:59;;;;;;;6.68;3.75;;;14.70;99.90;;;;;;5022529;28;20050;-51
2023/08/06 02:06:26;;;;;;;5.47;3.63;;;14.70;99.90;;;;;;5022332;28;20149;-55
2023/08/06 02:08:53;;;;;;;5.82;3.55;;;14.70;99.90;;;;;;5026868;28;20095;-50
2023/08/06 02:11:20;;;;;;;5.25;3.10;;;14.70;99.90;;;;;;5028095;28;20052;-53
2023/08/06 02:13:48;;;;;;;5.80;3.50;;;14.70;99.90;;;;;;5019883;28;20056;-47
2023/08/06 02:16:18;;;;;;;5.72;3.38;;;14.60;99.90;;;;;;5020019;28;20518;-50
2023/08/06 02:18:45;;;;;;;5.63;2.75;;;14.60;99.90;;;;;;5020056;28;20430;-53
2023/08/06 02:21:24;;;;;;;4.43;2.83;;;14.60;99.90;;;;;;5018389;28;20061;-53
2023/08/06 02:23:51;;;;;;;5.05;3.33;;;14.60;99.90;;;;;;5018741;28;20126;-49
2023/08/06 02:26:19;;;;;;;4.63;2.80;;;14.60;99.90;;;;;;5022405;28;20104;-54
2023/08/06 02:28:46;;;;;;;5.07;3.20;;;14.60;99.90;;;;;;5021675;28;20463;-52
2023/08/06 02:31:14;;;;;;;5.25;3.00;;;14.60;99.90;;;;;;5023149;28;20079;-49
2023/08/06 02:33:41;;;;;;;6.32;3.22;;;14.50;99.90;;;;;;5016922;28;20042;-53
2023/08/06 02:36:09;;;;;;;5.00;3.03;;;14.50;99.90;;;;;;5024024;28;20053;-54
2023/08/06 02:38:37;;;;;;;5.30;3.30;;;14.60;99.90;;;;;;5018135;28;20038;-52
2023/08/06 02:41:05;;;;;;;4.15;2.67;;;14.60;99.90;;;;;;5024471;28;20041;-54
2023/08/06 02:43:32;;;;;;;4.70;2.80;;;14.60;99.90;;;;;;5017338;28;20056;-53
2023/08/06 02:46:00;;;;;;;5.28;3.20;;;14.60;99.90;;;;;;5018341;28;20092;-53
2023/08/06 02:48:28;;;;;;;5.03;2.90;;;14.60;99.90;;;;;;5020824;28;20432;-55
2023/08/06 02:51:00;;;;;;;5.85;3.30;;;14.60;99.90;;;;;;5018919;28;20519;-57
2023/08/06 02:53:29;;;;;;;5.15;3.00;;;14.60;99.90;;;;;;5020860;28;20360;-52
2023/08/06 02:55:59;;;;;;;4.70;2.78;;;14.50;99.90;;;;;;5022730;28;20041;-54
2023/08/06 02:58:35;;;;;;;5.95;2.90;;;14.60;99.90;;;;;;5027864;28;20128;-52
2023/08/06 03:01:10;;;;;;;6.60;3.00;;;14.60;99.90;;;;;;5019200;28;20064;-53
2023/08/06 03:03:50;;;;;;;7.18;2.92;;;14.60;99.90;;;;;;5016084;28;20042;-55
2023/08/06 03:06:24;;;;;;;5.25;2.95;;;14.70;99.90;;;;;;5021452;28;20045;-55
2023/08/06 03:08:54;;;;;;;5.95;3.00;;;14.70;99.90;;;;;;5017091;28;20048;-53
2023/08/06 03:11:21;;;;;;;4.10;2.58;;;14.60;99.90;;;;;;5025684;28;20431;-53
2023/08/06 03:13:54;;;;;;;6.25;2.75;;;14.70;99.90;;;;;;5020716;28;20038;-52
2023/08/06 03:16:24;;;;;;;4.93;2.83;;;14.70;99.90;;;;;;5025887;28;20113;-52
2023/08/06 03:18:53;;;;;;;4.68;2.97;;;14.80;99.90;;;;;;5021037;28;20040;-49
2023/08/06 03:21:21;;;;;;;5.70;3.40;;;14.80;99.90;;;;;;5026751;28;20131;-49
2023/08/06 03:23:48;;;;;;;5.30;3.15;;;14.90;99.90;;;;;;5027811;28;20045;-55
2023/08/06 03:26:18;;;;;;;5.75;3.50;;;14.80;99.90;;;;;;5022009;28;20051;-54
2023/08/06 03:28:47;;;;;;;5.55;3.75;;;14.90;99.90;;;;;;5027190;28;20049;-53
2023/08/06 03:31:15;;;;;;;7.80;4.40;;;14.90;99.90;;;;;;5026360;28;20430;-55
2023/08/06 03:33:44;;;;;;;6.55;4.35;;;14.90;99.90;;;;;;5026394;28;20602;-52
2023/08/06 03:36:18;;;;;;;6.30;3.63;;;14.90;99.90;;;;;;5025665;28;20045;-50
2023/08/06 03:38:46;;;;;;;5.85;3.75;;;14.80;99.90;;;;;;5025397;28;20041;-53
2023/08/06 03:41:14;;;;;;;6.03;3.60;;;14.80;99.90;;;;;;5026432;28;20064;-50
2023/08/06 03:43:43;;;;;;;5.80;3.90;;;14.70;99.90;;;;;;5027200;28;20049;-50
2023/08/06 03:46:16;;;;;;;6.40;4.35;;;14.70;99.90;;;;;;5019406;28;20666;-49
2023/08/06 03:48:44;;;;;;;7.43;4.50;;;14.60;99.90;;;;;;5027211;28;20049;-49
2023/08/06 03:51:12;;;;;;;7.63;4.30;;;14.50;99.90;;;;;;5025111;28;20438;-51
2023/08/06 03:53:42;;;;;;;6.38;4.75;;;14.50;99.90;;;;;;5026015;28;20514;-48
2023/08/06 03:56:10;;;;;;;8.35;4.45;;;14.40;99.90;;;;;;5026378;28;20111;-48
2023/08/06 03:58:37;;;;;;;7.35;4.43;;;14.30;99.90;;;;;;5021156;28;20037;-53
2023/08/06 04:01:05;;;;;;;7.65;4.30;;;14.20;99.90;;;;;;5025622;28;20532;-54
2023/08/06 04:03:39;;;;;;;5.53;3.58;;;14.10;99.90;;;;;;5026610;28;20095;-51
2023/08/06 04:06:07;;;;;;;5.22;3.40;;;14.10;99.90;;;;;;5026185;28;20095;-50
2023/08/06 04:08:34;;;;;;;6.93;3.90;;;14.00;99.90;;;;;;5028340;28;20340;-52
2023/08/06 04:11:03;;;;;;;5.63;3.70;;;14.10;99.90;;;;;;5026478;28;20041;-53
2023/08/06 04:13:30;;;;;;;5.00;3.20;;;14.00;99.90;;;;;;5027224;28;20057;-53
2023/08/06 04:16:02;;;;;;;6.10;3.50;;;14.00;99.90;;;;;;5025294;28;20049;-55
2023/08/06 04:18:31;;;;;;;5.40;3.63;;;14.00;99.90;;;;;;5014932;28;20091;-53
2023/08/06 04:20:58;;;;;;;5.60;3.67;;;14.00;99.90;;;;;;5026924;28;20049;-55
2023/08/06 04:23:26;;;;;;;7.85;4.78;;;14.00;99.90;;;;;;5027255;28;20041;-49
2023/08/06 04:25:57;;;;;;;10.10;6.13;;;14.10;99.90;;;;;;5026397;28;20040;-51
2023/08/06 04:28:28;;;;;;;9.00;5.55;;;14.10;99.90;;;;;;5023919;28;20187;-51
2023/08/06 04:30:55;;;;;;;8.90;4.95;;;14.20;99.90;;;;;;5023939;28;20554;-52
2023/08/06 04:33:23;;;;;;;6.43;4.00;;;14.20;99.90;;;;;;5024883;28;20044;-55
2023/08/06 04:35:55;;;;;;;6.75;4.15;;;14.30;99.90;;;;;;5025876;28;20084;-48
2023/08/06 04:38:25;;;;;;;8.10;4.15;;;14.30;99.90;;;;;;5041029;28;20045;-52
2023/08/06 04:40:53;;;;;;;6.00;3.85;;;14.40;99.90;;;;;;5025602;28;20051;-53
2023/08/06 04:43:21;;;;;;;5.75;3.50;;;14.40;99.90;;;;;;5025433;28;20073;-53
2023/08/06 04:45:51;;;;;;;6.30;3.42;;;14.40;99.90;;;;;;5025346;28;20120;-51
2023/08/06 04:48:18;;;;;;;5.30;3.50;;;14.40;99.90;;;;;;5027192;28;20087;-48
2023/08/06 04:50:46;;;;;;;5.15;3.10;;;14.40;99.90;;;;;;5023651;28;20073;-55
2023/08/06 04:53:14;;;;;;;5.35;3.28;;;14.40;99.90;;;;;;5024738;28;20052;-50
2023/08/06 04:55:41;;;;;;;9.10;5.70;;;14.40;99.90;;;;;;5026323;28;20152;-55
2023/08/06 04:58:10;;;;;;;10.10;6.68;;;14.50;99.90;;;;;;5024685;28;20145;-54
2023/08/06 05:00:37;;;;;;;7.05;5.20;;;14.40;99.90;;;;;;5021966;28;20513;-52
2023/08/06 05:03:05;;;;;;;9.50;6.55;;;14.50;99.90;;;;;;5024699;28;20065;-51
2023/08/06 05:05:32;;;;;;;9.88;5.95;;;14.50;99.90;;;;;;5026646;28;20088;-54
2023/08/06 05:08:00;;;;;;;8.82;5.13;;;14.60;99.90;;;;;;5026052;28;20548;-52
2023/08/06 05:10:28;;;;;;;8.60;4.97;;;14.70;99.90;;;;;;5023798;28;20447;-51
2023/08/06 05:12:55;;;;;;;7.28;4.45;;;14.70;99.90;;;;;;5024903;28;20050;-49
2023/08/06 05:15:25;;;;;;;7.45;4.75;;;14.80;99.90;;;;;;5028926;28;20123;-51
2023/08/06 05:17:52;;;;;;;7.10;4.18;;;14.90;99.90;;;;;;5026457;28;20037;-60
2023/08/06 05:20:20;;;;;;;6.38;3.78;;;15.00;99.90;;;;;;5025009;28;20107;-52
2023/08/06 05:22:48;;;;;;;4.90;3.15;;;15.10;99.90;;;;;;5026934;28;20049;-47
2023/08/06 05:25:15;;;;;;;5.38;3.53;;;15.30;99.90;;;;;;5031685;28;20053;-52
2023/08/06 05:27:42;;;;;;;6.65;3.65;;;15.50;99.90;;;;;;5029418;28;20049;-52
2023/08/06 05:30:10;;;;;;;8.23;3.70;;;15.70;99.90;;;;;;5030000;28;20080;-53
2023/08/06 05:32:38;;;;;;;5.00;3.22;;;15.80;99.90;;;;;;5021747;28;20143;-51
2023/08/06 05:35:06;;;;;;;5.60;3.60;;;15.90;99.90;;;;;;5029396;28;20060;-53
2023/08/06 05:37:34;;;;;;;5.95;3.50;;;16.00;99.90;;;;;;5025087;28;20092;-54
2023/08/06 05:40:02;;;;;;;4.90;3.10;;;16.10;99.90;;;;;;5028213;28;20044;-55
2023/08/06 05:42:30;;;;;;;5.30;3.35;;;16.30;99.90;;;;;;5025094;28;20551;-51
2023/08/06 05:44:57;;;;;;;7.07;3.50;;;16.30;99.90;;;;;;5028838;28;20053;-54
2023/08/06 05:47:25;;;;;;;6.03;3.10;;;16.20;99.90;;;;;;5029312;28;20156;-49
2023/08/06 05:49:52;;;;;;;6.18;3.10;;;16.10;99.90;;;;;;5030193;28;20057;-53
2023/08/06 05:52:19;;;;;;;5.85;3.90;;;16.00;99.90;;;;;;5030206;28;20041;-54
2023/08/06 05:54:47;;;;;;;5.03;3.40;;;16.00;99.90;;;;;;5030437;28;20103;-52
2023/08/06 05:57:14;;;;;;;6.68;3.97;;;15.90;99.90;;;;;;5028174;28;20449;-51
2023/08/06 05:59:42;;;;;;;5.65;3.72;;;15.70;99.90;;;;;;5028443;28;20037;-55
2023/08/06 06:02:09;;;;;;;5.45;3.47;;;15.80;99.90;;;;;;5029229;28;20097;-48
2023/08/06 06:04:37;;;;;;;5.85;3.28;;;15.70;99.90;;;;;;5026722;28;20065;-55
2023/08/06 06:07:04;;;;;;;6.68;3.63;;;16.00;99.90;;;;;;5028888;28;20069;-51
2023/08/06 06:09:32;;;;;;;5.35;3.78;;;16.10;99.90;;;;;;5028817;28;20103;-56
2023/08/06 06:11:59;;;;;;;5.07;3.17;;;16.30;99.90;;;;;;5025985;28;20061;-50
2023/08/06 06:14:26;;;;;;;6.20;3.30;;;16.60;99.90;;;;;;5027702;28;20053;-54
2023/08/06 06:16:54;;;;;;;5.93;3.90;;;16.70;99.90;;;;;;5029856;28;20045;-51
2023/08/06 06:19:21;;;;;;;6.38;3.85;;;16.80;99.90;;;;;;5024111;28;20041;-48
2023/08/06 06:21:49;;;;;;;5.95;4.10;;;16.80;99.90;;;;;;5026440;28;20100;-52
2023/08/06 06:24:16;;;;;;;6.70;4.10;;;16.50;99.90;;;;;;5024472;28;20053;-50
2023/08/06 06:26:43;;;;;;;5.93;3.22;;;16.50;99.90;;;;;;5030632;28;20073;-50
2023/08/06 06:29:10;;;;;;;7.90;3.70;;;16.50;99.90;;;;;;5032575;28;20053;-51
2023/08/06 06:31:38;;;;;;;6.00;3.67;;;16.40;99.90;;;;;;5032528;28;20418;-50
2023/08/06 06:34:05;;;;;;;5.50;3.97;;;16.40;99.90;;;;;;5033081;28;20255;-54
2023/08/06 06:36:33;;;;;;;6.10;3.55;;;16.30;99.90;;;;;;5031347;28;20095;-53
2023/08/06 06:39:00;;;;;;;5.00;2.97;;;16.30;99.90;;;;;;5035168;28;20137;-51
2023/08/06 06:41:29;;;;;;;6.70;3.53;;;16.30;99.90;;;;;;5030571;28;20045;-51
2023/08/06 06:44:03;;;;;;;5.35;3.35;;;16.10;99.90;;;;;;5030655;28;20112;-50
2023/08/06 06:46:31;;;;;;;5.35;3.22;;;16.10;99.90;;;;;;5024316;28;20033;-56
2023/08/06 06:48:58;;;;;;;7.90;3.90;;;15.90;99.90;;;;;;5022983;28;20107;-51
2023/08/06 06:51:25;;;;;;;5.90;3.72;;;15.80;99.90;;;;;;5021565;28;20042;-53
2023/08/06 06:53:53;;;;;;;5.38;3.53;;;15.80;99.90;;;;;;5017355;28;20045;-51
2023/08/06 06:56:20;;;;;;;5.38;3.88;;;15.80;99.90;;;;;;5024146;28;20120;-50
2023/08/06 06:58:47;;;;;;;5.75;3.60;;;15.80;99.90;;;;;;5020769;28;20041;-52
2023/08/06 07:01:15;;;;;;;6.60;4.05;;;16.00;99.90;;;;;;5025054;28;20045;-46
2023/08/06 07:03:42;;;;;;;6.28;3.80;;;16.10;99.90;;;;;;5026451;28;20049;-50
2023/08/06 07:06:10;;;;;;;7.22;4.28;;;16.00;99.90;;;;;;5029204;28;20518;-55
2023/08/06 07:08:38;;;;;;;7.10;3.78;;;16.00;99.90;;;;;;5027183;28;20457;-54
2023/08/06 07:11:06;;;;;;;7.65;4.05;;;16.10;99.90;;;;;;5022505;28;20777;-52
2023/08/06 07:13:36;;;;;;;5.88;3.60;;;16.10;99.90;;;;;;5024044;28;20073;-51
2023/08/06 07:16:04;;;;;;;7.25;3.40;;;16.10;99.90;;;;;;5027735;28;20367;-54
2023/08/06 07:18:31;;;;;;;6.93;3.83;;;16.20;99.90;;;;;;5018060;28;20051;-49
2023/08/06 07:20:59;;;;;;;9.68;3.47;;;16.40;99.90;;;;;;5024184;28;20069;-51
2023/08/06 07:23:27;;;;;;;5.38;3.88;;;16.50;99.90;;;;;;5028132;28;20053;-49
2023/08/06 07:25:54;;;;;;;6.30;3.72;;;16.50;99.90;;;;;;5022610;28;20429;-49
2023/08/06 07:28:22;;;;;;;6.13;3.45;;;16.60;99.90;;;;;;5028816;28;20041;-49
2023/08/06 07:30:49;;;;;;;5.57;3.22;;;16.70;99.90;;;;;;5021887;28;20045;-49
2023/08/06 07:33:16;;;;;;;5.25;3.22;;;16.80;99.90;;;;;;5017651;28;20075;-57
2023/08/06 07:35:44;;;;;;;8.07;3.33;;;17.00;99.90;;;;;;5027724;28;20091;-51
2023/08/06 07:38:11;;;;;;;8.05;3.40;;;17.20;99.90;;;;;;5022146;28;20073;-49
2023/08/06 07:40:38;;;;;;;5.70;3.45;;;17.10;99.90;;;;;;5015072;28;20427;-55
2023/08/06 07:43:06;;;;;;;6.78;3.40;;;17.20;99.90;;;;;;5024947;28;20103;-52
2023/08/06 07:45:35;;;;;;;5.20;3.33;;;17.20;99.90;;;;;;5020301;28;20140;-50
2023/08/06 07:48:03;;;;;;;7.93;3.15;;;17.10;99.90;;;;;;5026333;28;20081;-48
2023/08/06 07:50:31;;;;;;;8.23;3.30;;;17.10;99.90;;;;;;5027071;28;20530;-57
2023/08/06 07:52:58;;;;;;;6.30;3.35;;;17.30;99.90;;;;;;5021557;28;20568;-50
2023/08/06 07:55:26;;;;;;;6.05;3.13;;;17.40;99.90;;;;;;5022910;28;20470;-52
2023/08/06 07:57:54;;;;;;;6.32;2.63;;;17.50;99.90;;;;;;5024369;28;20041;-53
2023/08/06 08:00:21;;;;;;;4.63;2.53;;;17.40;99.90;;;;;;5024085;28;20068;-54
2023/08/06 08:02:49;;;;;;;4.85;2.60;;;17.50;99.90;;;;;;5018675;28;20418;-53
2023/08/06 08:05:16;;;;;;;4.40;2.53;;;17.40;99.90;;;;;;5022304;28;20045;-51
2023/08/06 08:07:44;;;;;;;4.95;2.40;;;17.60;99.90;;;;;;5016939;28;20120;-54
2023/08/06 08:10:11;;;;;;;4.38;2.10;;;17.90;99.90;;;;;;5021543;28;20064;-55
2023/08/06 08:12:39;;;;;;;5.00;2.45;;;18.30;99.90;;;;;;5022337;28;20459;-53
2023/08/06 08:15:06;;;;;;;4.88;2.50;;;18.30;99.90;;;;;;5023280;28;20131;-49
2023/08/06 08:17:34;;;;;;;4.00;2.38;;;18.20;99.90;;;;;;5023076;28;20072;-52
2023/08/06 08:20:02;;;;;;;5.65;2.83;;;17.60;99.90;;;;;;5018764;28;20046;-52
2023/08/06 08:22:30;;;;;;;5.85;2.28;;;17.00;99.90;;;;;;5018309;28;20049;-55
2023/08/06 08:24:57;;;;;;;2.78;1.40;;;16.50;99.90;;;;;;5018776;28;20053;-50
2023/08/06 08:27:26;;;;;;;3.92;1.42;;;16.10;99.90;;;;;;5020441;28;20139;-54
2023/08/06 08:29:53;;;;;;;2.90;1.30;;;16.00;99.90;;;;;;5016607;28;20108;-49
2023/08/06 08:32:20;;;;;;;4.15;1.40;;;15.90;99.90;;;;;;5019940;28;20053;-52
2023/08/06 08:34:48;;;;;;;2.80;1.27;;;16.00;99.90;;;;;;5024799;28;20130;-52
2023/08/06 08:37:15;;;;;;;3.15;1.05;;;16.10;99.90;;;;;;5023662;28;20129;-54
2023/08/06 08:39:42;;;;;;;3.13;1.17;;;16.20;99.90;;;;;;5024047;28;20072;-52
2023/08/06 08:42:10;;;;;;;2.38;0.90;;;16.30;99.90;;;;;;5023234;28;20061;-54
2023/08/06 08:44:39;;;;;;;1.95;1.00;;;16.50;99.90;;;;;;5019415;28;20590;-55
2023/08/06 08:47:09;;;;;;;3.78;1.05;;;16.70;99.90;;;;;;5024283;28;20048;-50
2023/08/06 08:49:37;;;;;;;0.90;0.65;;;16.90;99.90;;;;;;5019826;28;20056;-49
2023/08/06 08:52:06;;;;;;;2.63;0.63;;;17.00;99.90;;;;;;5020474;28;20538;-51
2023/08/06 08:54:35;;;;;;;3.47;0.88;;;16.70;99.90;;;;;;5020182;28;20118;-49
2023/08/06 08:57:02;;;;;;;1.73;0.70;;;16.90;99.90;;;;;;5021988;28;20052;-52
2023/08/06 08:59:30;;;;;;;1.00;0.60;;;16.90;99.90;;;;;;5023065;28;20060;-51
2023/08/06 09:02:03;;;;;;;1.20;0.60;;;17.10;99.90;;;;;;5027820;28;20408;-54
2023/08/06 09:04:35;;;;;;;1.90;0.60;;;17.30;99.90;;;;;;5025170;28;20115;-45
2023/08/06 09:07:05;;;;;;;1.77;0.70;;;17.10;99.90;;;;;;5028438;28;20164;-51
2023/08/06 09:09:38;;;;;;;1.40;0.70;;;17.00;99.90;;;;;;5024508;28;20050;-49
2023/08/06 09:12:14;;;;;;;1.35;0.68;;;16.70;99.90;;;;;;5026303;28;20353;-51
2023/08/06 09:14:42;;;;;;;0.50;0.50;;;16.80;99.90;;;;;;5027365;28;20112;-57
2023/08/06 09:17:12;;;;;;;2.00;0.80;;;16.80;99.90;;;;;;5019822;28;20087;-57
2023/08/06 09:19:48;;;;;;;2.28;0.77;;;17.10;99.90;;;;;;5018408;28;20129;-53
2023/08/06 09:22:15;;;;;;;3.00;0.73;;;17.30;99.90;;;;;;5021398;28;20445;-49
2023/08/06 09:24:43;;;;;;;1.85;0.88;;;17.20;99.90;;;;;;5023292;28;20049;-49
2023/08/06 09:27:14;;;;;;;0.88;0.55;;;17.30;99.90;;;;;;5028386;28;20057;-52
2023/08/06 09:29:44;;;;;;;1.50;0.85;;;17.20;99.90;;;;;;5027505;28;20061;-57
2023/08/06 09:32:13;;;;;;;1.35;0.70;;;17.20;99.90;;;;;;5022384;28;20056;-57
2023/08/06 09:34:42;;;;;;;1.33;0.55;;;17.50;99.90;;;;;;5025154;28;20069;-54
2023/08/06 09:37:10;;;;;;;1.38;0.75;;;17.60;99.90;;;;;;5027588;28;20129;-48
2023/08/06 09:39:42;;;;;;;2.17;0.85;;;18.00;99.90;;;;;;5022609;28;20046;-50
2023/08/06 09:42:10;;;;;;;;;;;18.00;99.90;;;;;;5022126;28;20053;-51
2023/08/06 09:44:40;;;;;;;1.17;0.80;;;17.90;99.90;;;;;;5018113;28;19933;-52
2023/08/06 09:47:08;;;;;;;1.10;0.70;;;17.60;99.90;;;;;;5027213;28;20057;-50
2023/08/06 09:49:35;;;;;;;1.02;0.70;;;17.50;99.90;;;;;;5028045;28;20045;-51
2023/08/06 09:52:03;;;;;;;0.95;0.70;;;17.70;99.90;;;;;;5028223;28;20045;-51
2023/08/06 09:54:35;;;;;;;1.35;0.82;;;17.60;99.90;;;;;;5024244;28;20205;-57
2023/08/06 09:57:03;;;;;;;1.70;0.90;;;17.60;99.90;;;;;;5025325;28;20096;-51
2023/08/06 09:59:31;;;;;;;2.10;0.70;;;17.70;99.90;;;;;;5024887;28;20132;-56
2023/08/06 10:01:59;;;;;;;0.85;0.80;;;17.70;99.90;;;;;;5016532;28;20049;-53
2023/08/06 10:04:29;;;;;;;0.60;0.60;;;17.70;99.90;;;;;;5024516;28;20048;-53
2023/08/06 10:07:08;;;;;;;1.65;0.80;;;17.70;99.90;;;;;;5024690;28;20049;-48
2023/08/06 10:09:35;;;;;;;1.38;0.60;;;17.60;99.90;;;;;;5028357;28;20063;-52
2023/08/06 10:12:03;;;;;;;3.03;0.70;;;17.20;99.90;;;;;;5031973;28;20509;-54
2023/08/06 10:14:36;;;;;;;1.35;0.90;;;17.20;99.90;;;;;;5028363;28;20056;-53
2023/08/06 10:17:04;;;;;;;2.05;0.70;;;17.50;99.90;;;;;;5022346;28;20467;-51
2023/08/06 10:19:32;;;;;;;0.60;0.60;;;17.80;99.90;;;;;;5021560;28;20060;-54
2023/08/06 10:22:13;;;;;;;0.60;0.60;;;17.90;99.90;;;;;;5020359;28;20499;-52
2023/08/06 10:24:58;;;;;;;2.05;1.10;;;18.20;99.90;;;;;;5021901;28;20064;-54
2023/08/06 10:27:32;;;;;;;0.80;0.70;;;18.50;99.90;;;;;;5019148;28;20045;-57
2023/08/06 10:30:24;;;;;;;1.65;0.80;;;18.30;99.90;;;;;;5019496;28;20077;-49
2023/08/06 10:33:02;;;;;;;0.77;0.77;;;18.30;99.90;;;;;;5022388;28;20049;-51
2023/08/06 10:35:50;;;;;;;2.90;0.90;;;18.20;99.90;;;;;;5028178;28;20068;-53
2023/08/06 10:38:31;;;;;;;1.08;0.90;;;18.20;99.90;;;;;;5019130;28;20045;-49
2023/08/06 10:40:59;;;;;;;1.02;0.95;;;18.20;99.90;;;;;;5024709;28;20136;-52
2023/08/06 10:43:28;;;;;;;1.30;0.90;;;18.10;99.90;;;;;;5024617;28;20076;-55
2023/08/06 10:45:57;;;;;;;0.98;0.80;;;18.40;99.90;;;;;;5027657;28;20135;-53
2023/08/06 10:48:45;;;;;;;0.95;0.77;;;18.40;99.90;;;;;;5023695;28;20454;-51
2023/08/06 10:51:17;;;;;;;1.08;0.70;;;18.20;99.90;;;;;;5021859;28;20119;-52
2023/08/06 10:53:46;;;;;;;1.02;0.80;;;18.20;99.90;;;;;;5022596;28;20092;-50
2023/08/06 10:56:22;;;;;;;1.30;0.80;;;18.30;99.90;;;;;;5023610;28;20049;-51
2023/08/06 10:58:51;;;;;;;1.70;1.00;;;18.20;99.90;;;;;;5020906;28;20042;-49
2023/08/06 11:01:18;;;;;;;0.85;0.60;;;18.50;99.90;;;;;;5019743;28;20052;-48
2023/08/06 11:03:49;;;;;;;1.35;0.80;;;18.70;99.90;;;;;;5030101;28;20065;-51
2023/08/06 11:06:21;;;;;;;0.70;0.70;;;19.10;99.90;;;;;;5023591;28;20069;-51
2023/08/06 11:08:49;;;;;;;;;;;19.10;99.90;;;;;;5024811;28;20049;-51
2023/08/06 11:11:17;;;;;;;1.25;0.80;;;19.00;99.90;;;;;;5030714;28;19929;-52
2023/08/06 11:13:49;;;;;;;2.30;0.80;;;19.30;99.90;;;;;;5028495;28;20405;-46
2023/08/06 11:16:24;;;;;;;1.38;0.90;;;19.40;99.90;;;;;;5025487;28;20117;-54
2023/08/06 11:18:54;;;;;;;0.80;0.80;;;19.20;99.90;;;;;;5025397;28;20042;-54
2023/08/06 11:21:24;;;;;;;0.70;0.70;;;19.10;99.90;;;;;;5027029;28;20133;-55
2023/08/06 11:23:52;;;;;;;1.58;0.80;;;18.60;99.90;;;;;;5021813;28;20057;-54
2023/08/06 11:26:25;;;;;;;0.80;0.80;;;18.50;99.90;;;;;;5025181;28;20100;-50
2023/08/06 11:28:52;;;;;;;1.42;0.93;;;18.40;99.90;;;;;;5025561;28;20051;-58
2023/08/06 11:31:23;;;;;;;4.10;0.90;;;18.40;99.90;;;;;;5019360;28;20057;-54
2023/08/06 11:33:51;;;;;;;1.02;0.80;;;18.70;99.90;;;;;;5022355;28;20140;-50
2023/08/06 11:36:40;;;;;;;1.10;0.90;;;18.70;99.90;;;;;;5023515;28;20042;-52
2023/08/06 11:39:09;;;;;;;0.93;0.75;;;18.90;99.90;;;;;;5028357;28;20077;-51
2023/08/06 11:41:40;;;;;;;0.85;0.70;;;18.30;99.90;;;;;;5030605;28;20087;-48
2023/08/06 11:44:12;;;;;;;1.65;0.80;;;18.20;99.90;;;;;;5030051;28;20045;-47
2023/08/06 11:46:55;;;;;;;1.00;0.73;;;18.40;99.90;;;;;;5028023;28;20045;-55
2023/08/06 11:49:44;;;;;;;1.57;0.70;;;18.70;99.90;;;;;;5023709;28;20045;-50
2023/08/06 11:52:19;;;;;;;1.67;0.50;;;18.70;99.90;;;;;;5022486;28;20379;-48
2023/08/06 11:55:06;;;;;;;1.60;0.70;;;18.90;99.90;;;;;;5018163;28;20049;-56
2023/08/06 11:57:35;;;;;;;1.30;0.80;;;19.00;99.90;;;;;;5021935;28;20856;-52
2023/08/06 12:00:07;;;;;;;1.70;1.15;;;19.30;99.90;;;;;;5020055;28;20041;-59
2023/08/06 12:02:43;;;;;;;3.22;1.17;;;19.50;99.90;;;;;;5025104;28;20371;-51
2023/08/06 12:05:11;;;;;;;4.40;1.40;;;19.60;99.90;;;;;;5028987;28;20089;-52
2023/08/06 12:07:43;;;;;;;1.70;0.95;;;19.40;99.90;;;;;;5028473;28;20041;-53
2023/08/06 12:10:12;;;;;;;1.70;0.90;;;19.20;99.90;;;;;;5028166;28;20053;-53
2023/08/06 12:12:40;;;;;;;1.02;0.90;;;18.60;99.90;;;;;;5025497;28;20585;-48
2023/08/06 12:15:09;;;;;;;1.52;0.90;;;17.80;99.90;;;;;;5026225;28;20042;-52
2023/08/06 12:17:37;;;;;;;1.58;0.70;;;16.60;99.90;;;;;;5017674;28;20049;-50
2023/08/06 12:20:07;;;;;;;0.70;0.70;;;16.10;99.90;;;;;;5024203;28;20042;-51
2023/08/06 12:22:37;;;;;;;2.53;0.70;;;16.00;99.90;;;;;;5036204;28;20041;-53
2023/08/06 12:25:07;;;;;;;1.42;0.70;;;16.10;99.90;;;;;;5022430;28;20045;-54
2023/08/06 12:27:36;;;;;;;2.57;0.80;;;16.00;99.90;;;;;;5029050;28;20057;-54
2023/08/06 12:30:05;;;;;;;2.40;0.60;;;16.20;99.90;;;;;;5023545;28;20294;-57
2023/08/06 12:32:34;;;;;;;0.75;0.60;;;16.40;99.90;;;;;;5027480;28;20049;-50
2023/08/06 12:35:01;;;;;;;1.52;0.70;;;16.80;99.90;;;;;;5025224;28;20104;-54
2023/08/06 12:37:31;;;;;;;1.98;0.65;;;17.30;99.90;;;;;;5025410;28;20079;-57
2023/08/06 12:39:58;;;;;;;0.82;0.70;;;18.00;99.90;;;;;;5028785;28;20049;-55
2023/08/06 12:42:41;;;;;;;0.73;0.63;;;18.60;99.90;;;;;;5025468;28;20046;-51
2023/08/06 12:45:09;;;;;;;0.75;0.75;;;19.10;99.90;;;;;;5028402;28;20053;-55
2023/08/06 12:47:36;;;;;;;0.70;0.60;;;19.00;99.90;;;;;;5023935;28;20137;-51
2023/08/06 12:50:04;;;;;;;0.60;0.60;;;18.70;99.90;;;;;;5022824;28;20046;-47
2023/08/06 12:52:35;;;;;;;0.60;0.50;;;18.80;99.90;;;;;;5017391;28;20145;-54
2023/08/06 12:55:02;;;;;;;1.52;0.63;;;18.80;99.90;;;;;;5023594;28;20073;-53
2023/08/06 12:57:30;;;;;;;2.05;0.52;;;18.80;99.90;;;;;;5027544;28;20920;-51
2023/08/06 13:00:17;;;;;;;0.80;0.60;;;19.30;99.90;;;;;;5027433;28;20037;-47